sensor_id;sensor_type;location;lat;lon;timestamp;temperature;humidity
8715;DHT22;4394;51.208;8.904;2023-05-15T00:00:25;12.90;99.90
8715;DHT22;4394;51.208;8.904;2023-05-15T00:03:13;12.80;99.90
8715;DHT22;4394;51.208;8.904;2023-05-15T00:06:02;12.80;99.90
8715;DHT22;4394;51.208;8.904;2023-05-15T00:08:50;12.80;99.90
8715;DHT22;4394;51.208;8.904;2023-05-15T00:11:38;12.80;99.90
8715;DHT22;4394;51.208;8.904;2023-05-15T00:14:28;12.70;99.90
8715;DHT22;4394;51.208;8.904;2023-05-15T00:17:16;12.70;99.90
8715;DHT22;4394;51.208;8.904;2023-05-15T00:20:06;12.60;99.90
8715;DHT22;4394;51.208;8.904;2023-05-15T00:22:56;12.50;99.90
8715;DHT22;4394;51.208;8.904;2023-05-15T00:25:45;12.50;99.90
8715;DHT22;4394;51.208;8.904;2023-05-15T00:28:33;12.40;99.90
8715;DHT22;4394;51.208;8.904;2023-05-15T00:31:23;12.40;99.90
8715;DHT22;4394;51.208;8.904;2023-05-15T00:34:11;12.30;99.90
8715;DHT22;4394;51.208;8.904;2023-05-15T00:36:59;12.30;99.90
8715;DHT22;4394;51.208;8.904;2023-05-15T00:39:48;12.30;99.90
8715;DHT22;4394;51.208;8.904;2023-05-15T00:42:37;12.30;99.90
8715;DHT22;4394;51.208;8.904;2023-05-15T00:45:26;12.30;99.90
8715;DHT22;4394;51.208;8.904;2023-05-15T00:48:18;12.30;99.90
8715;DHT22;4394;51.208;8.904;2023-05-15T00:51:08;12.30;99.90
8715;DHT22;4394;51.208;8.904;2023-05-15T00:53:57;12.20;99.90
8715;DHT22;4394;51.208;8.904;2023-05-15T00:56:46;12.20;99.90
8715;DHT22;4394;51.208;8.904;2023-05-15T00:59:38;12.20;99.90
8715;DHT22;4394;51.208;8.904;2023-05-15T01:02:26;12.20;99.90
8715;DHT22;4394;51.208;8.904;2023-05-15T01:05:16;12.10;99.90
8715;DHT22;4394;51.208;8.904;2023-05-15T01:08:11;12.10;99.90
8715;DHT22;4394;51.208;8.904;2023-05-15T01:11:03;12.10;99.90
8715;DHT22;4394;51.208;8.904;2023-05-15T01:13:53;12.10;99.90
8715;DHT22;4394;51.208;8.904;2023-05-15T01:16:41;12.10;99.90
8715;DHT22;4394;51.208;8.904;2023-05-15T01:19:30;12.10;99.90
8715;DHT22;4394;51.208;8.904;2023-05-15T01:29:00;12.20;99.90
8715;DHT22;4394;51.208;8.904;2023-05-15T01:31:55;12.20;99.90
8715;DHT22;4394;51.208;8.904;2023-05-15T01:34:51;12.20;99.90
8715;DHT22;4394;51.208;8.904;2023-05-15T01:37:43;12.10;99.90
8715;DHT22;4394;51.208;8.904;2023-05-15T01:40:32;12.10;99.90
8715;DHT22;4394;51.208;8.904;2023-05-15T01:43:23;12.10;99.90
8715;DHT22;4394;51.208;8.904;2023-05-15T01:46:17;12.10;99.90
8715;DHT22;4394;51.208;8.904;2023-05-15T01:49:08;12.50;99.90
8715;DHT22;4394;51.208;8.904;2023-05-15T01:52:07;12.30;99.90
8715;DHT22;4394;51.208;8.904;2023-05-15T01:54:56;12.20;99.90
8715;DHT22;4394;51.208;8.904;2023-05-15T01:57:47;12.30;99.90
8715;DHT22;4394;51.208;8.904;2023-05-15T02:00:38;12.20;99.90
8715;DHT22;4394;51.208;8.904;2023-05-15T02:03:30;12.10;99.90
8715;DHT22;4394;51.208;8.904;2023-05-15T02:06:20;12.10;99.90
8715;DHT22;4394;51.208;8.904;2023-05-15T02:09:10;12.00;99.90
8715;DHT22;4394;51.208;8.904;2023-05-15T02:11:59;12.00;99.90
8715;DHT22;4394;51.208;8.904;2023-05-15T02:14:48;11.90;99.90
8715;DHT22;4394;51.208;8.904;2023-05-15T02:17:37;11.80;99.90
8715;DHT22;4394;51.208;8.904;2023-05-15T02:20:27;11.70;99.90
8715;DHT22;4394;51.208;8.904;2023-05-15T02:23:15;11.60;99.90
8715;DHT22;4394;51.208;8.904;2023-05-15T02:26:19;11.60;99.90
8715;DHT22;4394;51.208;8.904;2023-05-15T02:29:17;11.70;99.90
8715;DHT22;4394;51.208;8.904;2023-05-15T02:32:13;11.60;99.90
8715;DHT22;4394;51.208;8.904;2023-05-15T02:35:09;11.70;99.90
8715;DHT22;4394;51.208;8.904;2023-05-15T02:38:05;11.70;99.90
8715;DHT22;4394;51.208;8.904;2023-05-15T02:40:55;11.70;99.90
8715;DHT22;4394;51.208;8.904;2023-05-15T02:43:45;11.70;99.90
8715;DHT22;4394;51.208;8.904;2023-05-15T02:46:37;11.90;99.90
8715;DHT22;4394;51.208;8.904;2023-05-15T02:49:25;11.80;99.90
8715;DHT22;4394;51.208;8.904;2023-05-15T02:52:14;11.70;99.90
8715;DHT22;4394;51.208;8.904;2023-05-15T02:55:04;11.70;99.90
8715;DHT22;4394;51.208;8.904;2023-05-15T02:57:52;11.60;99.90
8715;DHT22;4394;51.208;8.904;2023-05-15T03:00:41;12.10;99.90
8715;DHT22;4394;51.208;8.904;2023-05-15T03:03:29;11.90;99.90
8715;DHT22;4394;51.208;8.904;2023-05-15T03:06:18;11.70;99.90
8715;DHT22;4394;51.208;8.904;2023-05-15T03:09:06;11.60;99.90
8715;DHT22;4394;51.208;8.904;2023-05-15T03:11:56;11.60;99.90
8715;DHT22;4394;51.208;8.904;2023-05-15T03:14:44;11.60;99.90
8715;DHT22;4394;51.208;8.904;2023-05-15T03:17:32;11.60;99.90
8715;DHT22;4394;51.208;8.904;2023-05-15T03:20:20;11.50;99.90
8715;DHT22;4394;51.208;8.904;2023-05-15T03:23:09;11.50;99.90
8715;DHT22;4394;51.208;8.904;2023-05-15T03:25:58;11.60;99.90
8715;DHT22;4394;51.208;8.904;2023-05-15T03:28:48;11.60;99.90
8715;DHT22;4394;51.208;8.904;2023-05-15T03:31:36;11.60;99.90
8715;DHT22;4394;51.208;8.904;2023-05-15T03:34:25;11.50;99.90
8715;DHT22;4394;51.208;8.904;2023-05-15T03:37:14;11.50;99.90
8715;DHT22;4394;51.208;8.904;2023-05-15T03:40:02;11.40;99.90
8715;DHT22;4394;51.208;8.904;2023-05-15T03:42:53;11.40;99.90
8715;DHT22;4394;51.208;8.904;2023-05-15T03:45:44;11.30;99.90
8715;DHT22;4394;51.208;8.904;2023-05-15T03:48:32;11.30;99.90
8715;DHT22;4394;51.208;8.904;2023-05-15T03:51:21;11.30;99.90
8715;DHT22;4394;51.208;8.904;2023-05-15T03:54:10;11.40;99.90
8715;DHT22;4394;51.208;8.904;2023-05-15T03:56:59;11.40;99.90
8715;DHT22;4394;51.208;8.904;2023-05-15T03:59:48;11.40;99.90
8715;DHT22;4394;51.208;8.904;2023-05-15T04:02:38;11.60;99.90
8715;DHT22;4394;51.208;8.904;2023-05-15T04:05:27;11.50;99.90
8715;DHT22;4394;51.208;8.904;2023-05-15T04:08:15;11.50;99.90
8715;DHT22;4394;51.208;8.904;2023-05-15T04:11:03;11.40;99.90
8715;DHT22;4394;51.208;8.904;2023-05-15T04:13:52;11.30;99.90
8715;DHT22;4394;51.208;8.904;2023-05-15T04:16:41;11.80;99.90
8715;DHT22;4394;51.208;8.904;2023-05-15T04:19:30;11.70;99.90
8715;DHT22;4394;51.208;8.904;2023-05-15T04:22:19;11.60;99.90
8715;DHT22;4394;51.208;8.904;2023-05-15T04:25:08;11.60;99.90
8715;DHT22;4394;51.208;8.904;2023-05-15T04:27:57;11.50;99.90
8715;DHT22;4394;51.208;8.904;2023-05-15T04:30:45;11.60;99.90
8715;DHT22;4394;51.208;8.904;2023-05-15T04:33:33;11.50;99.90
8715;DHT22;4394;51.208;8.904;2023-05-15T04:36:23;11.60;99.90
8715;DHT22;4394;51.208;8.904;2023-05-15T04:39:12;11.50;99.90
8715;DHT22;4394;51.208;8.904;2023-05-15T04:42:00;11.50;99.90
8715;DHT22;4394;51.208;8.904;2023-05-15T04:44:49;11.50;99.90
8715;DHT22;4394;51.208;8.904;2023-05-15T04:47:38;11.60;99.90
8715;DHT22;4394;51.208;8.904;2023-05-15T04:50:26;11.60;99.90
8715;DHT22;4394;51.208;8.904;2023-05-15T04:53:16;11.60;99.90
8715;DHT22;4394;51.208;8.904;2023-05-15T04:56:05;11.70;99.90
8715;DHT22;4394;51.208;8.904;2023-05-15T04:58:54;11.70;99.90
8715;DHT22;4394;51.208;8.904;2023-05-15T05:01:42;11.60;99.90
8715;DHT22;4394;51.208;8.904;2023-05-15T05:04:31;11.80;99.90
8715;DHT22;4394;51.208;8.904;2023-05-15T05:07:19;11.90;99.90
8715;DHT22;4394;51.208;8.904;2023-05-15T05:10:09;11.90;99.90
8715;DHT22;4394;51.208;8.904;2023-05-15T05:12:57;12.00;99.90
8715;DHT22;4394;51.208;8.904;2023-05-15T05:15:46;12.10;99.90
8715;DHT22;4394;51.208;8.904;2023-05-15T05:18:34;12.10;99.90
8715;DHT22;4394;51.208;8.904;2023-05-15T05:21:22;12.20;99.90
8715;DHT22;4394;51.208;8.904;2023-05-15T05:24:10;12.30;99.90
8715;DHT22;4394;51.208;8.904;2023-05-15T05:27:00;12.30;99.90
8715;DHT22;4394;51.208;8.904;2023-05-15T05:29:48;12.30;99.90
8715;DHT22;4394;51.208;8.904;2023-05-15T05:32:38;12.40;99.90
8715;DHT22;4394;51.208;8.904;2023-05-15T05:35:26;12.40;99.90
8715;DHT22;4394;51.208;8.904;2023-05-15T05:38:14;12.50;99.90
8715;DHT22;4394;51.208;8.904;2023-05-15T05:41:02;12.60;99.90
8715;DHT22;4394;51.208;8.904;2023-05-15T05:43:52;12.60;99.90
8715;DHT22;4394;51.208;8.904;2023-05-15T05:46:40;12.70;99.90
8715;DHT22;4394;51.208;8.904;2023-05-15T05:49:29;12.80;99.90
8715;DHT22;4394;51.208;8.904;2023-05-15T05:52:17;12.80;99.90
8715;DHT22;4394;51.208;8.904;2023-05-15T05:55:05;13.00;99.90
8715;DHT22;4394;51.208;8.904;2023-05-15T05:57:54;13.00;99.90
8715;DHT22;4394;51.208;8.904;2023-05-15T06:00:44;13.10;99.90
8715;DHT22;4394;51.208;8.904;2023-05-15T06:03:32;13.20;99.90
8715;DHT22;4394;51.208;8.904;2023-05-15T06:06:20;13.30;99.90
8715;DHT22;4394;51.208;8.904;2023-05-15T06:09:09;13.40;99.90
8715;DHT22;4394;51.208;8.904;2023-05-15T06:11:57;13.40;99.90
8715;DHT22;4394;51.208;8.904;2023-05-15T06:14:46;13.50;99.90
8715;DHT22;4394;51.208;8.904;2023-05-15T06:17:36;13.60;99.90
8715;DHT22;4394;51.208;8.904;2023-05-15T06:20:25;13.60;99.90
8715;DHT22;4394;51.208;8.904;2023-05-15T06:23:13;13.70;99.90
8715;DHT22;4394;51.208;8.904;2023-05-15T06:26:02;13.80;99.90
8715;DHT22;4394;51.208;8.904;2023-05-15T06:28:51;13.90;99.90
8715;DHT22;4394;51.208;8.904;2023-05-15T06:31:39;14.00;99.90
8715;DHT22;4394;51.208;8.904;2023-05-15T06:34:29;14.10;99.90
8715;DHT22;4394;51.208;8.904;2023-05-15T06:37:17;14.20;99.90
8715;DHT22;4394;51.208;8.904;2023-05-15T06:40:06;14.70;99.90
8715;DHT22;4394;51.208;8.904;2023-05-15T06:42:55;14.60;99.90
8715;DHT22;4394;51.208;8.904;2023-05-15T06:45:44;14.60;99.90
8715;DHT22;4394;51.208;8.904;2023-05-15T06:48:32;14.70;99.90
8715;DHT22;4394;51.208;8.904;2023-05-15T06:51:22;14.70;99.90
8715;DHT22;4394;51.208;8.904;2023-05-15T06:54:10;14.80;99.90
8715;DHT22;4394;51.208;8.904;2023-05-15T06:56:59;14.80;99.90
8715;DHT22;4394;51.208;8.904;2023-05-15T06:59:47;14.90;99.90
8715;DHT22;4394;51.208;8.904;2023-05-15T07:02:35;15.00;99.90
8715;DHT22;4394;51.208;8.904;2023-05-15T07:05:24;15.00;99.90
8715;DHT22;4394;51.208;8.904;2023-05-15T07:08:14;15.10;99.90
8715;DHT22;4394;51.208;8.904;2023-05-15T07:11:03;15.20;99.90
8715;DHT22;4394;51.208;8.904;2023-05-15T07:13:51;15.30;99.90
8715;DHT22;4394;51.208;8.904;2023-05-15T07:16:39;15.30;99.90
8715;DHT22;4394;51.208;8.904;2023-05-15T07:19:27;15.40;99.90
8715;DHT22;4394;51.208;8.904;2023-05-15T07:22:16;15.50;99.90
8715;DHT22;4394;51.208;8.904;2023-05-15T07:25:06;15.60;99.90
8715;DHT22;4394;51.208;8.904;2023-05-15T07:27:55;15.70;99.90
8715;DHT22;4394;51.208;8.904;2023-05-15T07:30:43;15.80;99.90
8715;DHT22;4394;51.208;8.904;2023-05-15T07:33:31;15.80;99.90
8715;DHT22;4394;51.208;8.904;2023-05-15T07:36:19;15.90;99.90
8715;DHT22;4394;51.208;8.904;2023-05-15T07:39:08;15.90;99.90
8715;DHT22;4394;51.208;8.904;2023-05-15T07:41:57;16.00;99.90
8715;DHT22;4394;51.208;8.904;2023-05-15T07:44:45;16.10;99.90
8715;DHT22;4394;51.208;8.904;2023-05-15T07:47:35;16.40;99.90
8715;DHT22;4394;51.208;8.904;2023-05-15T07:50:23;16.40;99.90
8715;DHT22;4394;51.208;8.904;2023-05-15T07:53:12;16.40;99.90
8715;DHT22;4394;51.208;8.904;2023-05-15T07:56:03;16.40;99.90
8715;DHT22;4394;51.208;8.904;2023-05-15T07:58:53;16.50;99.90
8715;DHT22;4394;51.208;8.904;2023-05-15T08:01:41;16.90;99.90
8715;DHT22;4394;51.208;8.904;2023-05-15T08:04:30;16.90;99.90
8715;DHT22;4394;51.208;8.904;2023-05-15T08:07:18;16.80;99.90
8715;DHT22;4394;51.208;8.904;2023-05-15T08:10:07;16.80;99.90
8715;DHT22;4394;51.208;8.904;2023-05-15T08:12:55;16.80;99.90
8715;DHT22;4394;51.208;8.904;2023-05-15T08:15:45;16.90;99.90
8715;DHT22;4394;51.208;8.904;2023-05-15T08:18:33;17.00;99.90
8715;DHT22;4394;51.208;8.904;2023-05-15T08:21:22;17.10;99.90
8715;DHT22;4394;51.208;8.904;2023-05-15T08:24:10;17.10;99.90
8715;DHT22;4394;51.208;8.904;2023-05-15T08:26:58;17.20;99.90
8715;DHT22;4394;51.208;8.904;2023-05-15T08:29:47;17.20;99.90
8715;DHT22;4394;51.208;8.904;2023-05-15T08:32:36;17.30;99.90
8715;DHT22;4394;51.208;8.904;2023-05-15T08:35:24;17.40;99.90
8715;DHT22;4394;51.208;8.904;2023-05-15T08:38:13;17.40;99.90
8715;DHT22;4394;51.208;8.904;2023-05-15T08:41:06;17.50;99.90
8715;DHT22;4394;51.208;8.904;2023-05-15T08:43:56;17.50;99.90
8715;DHT22;4394;51.208;8.904;2023-05-15T08:46:46;17.60;99.90
8715;DHT22;4394;51.208;8.904;2023-05-15T08:49:42;17.60;99.90
8715;DHT22;4394;51.208;8.904;2023-05-15T08:52:33;17.70;99.90
8715;DHT22;4394;51.208;8.904;2023-05-15T08:55:21;17.70;99.90
8715;DHT22;4394;51.208;8.904;2023-05-15T08:58:10;17.80;99.90
8715;DHT22;4394;51.208;8.904;2023-05-15T09:00:59;17.90;99.90
8715;DHT22;4394;51.208;8.904;2023-05-15T09:03:48;18.50;99.90
8715;DHT22;4394;51.208;8.904;2023-05-15T09:06:38;18.30;99.90
8715;DHT22;4394;51.208;8.904;2023-05-15T09:09:29;18.30;99.90
8715;DHT22;4394;51.208;8.904;2023-05-15T09:12:19;18.30;99.90
8715;DHT22;4394;51.208;8.904;2023-05-15T09:15:12;18.30;99.90
8715;DHT22;4394;51.208;8.904;2023-05-15T09:18:03;18.20;99.90
8715;DHT22;4394;51.208;8.904;2023-05-15T09:20:53;18.10;99.90
8715;DHT22;4394;51.208;8.904;2023-05-15T09:23:43;18.10;99.90
8715;DHT22;4394;51.208;8.904;2023-05-15T09:26:31;18.00;99.90
8715;DHT22;4394;51.208;8.904;2023-05-15T09:29:20;18.00;99.90
8715;DHT22;4394;51.208;8.904;2023-05-15T09:32:10;18.00;99.90
8715;DHT22;4394;51.208;8.904;2023-05-15T09:34:59;18.00;99.90
8715;DHT22;4394;51.208;8.904;2023-05-15T09:37:56;18.10;99.90
8715;DHT22;4394;51.208;8.904;2023-05-15T09:40:47;18.30;99.90
8715;DHT22;4394;51.208;8.904;2023-05-15T09:43:36;18.40;99.90
8715;DHT22;4394;51.208;8.904;2023-05-15T09:46:25;18.40;99.90
8715;DHT22;4394;51.208;8.904;2023-05-15T09:49:15;18.90;99.60
8715;DHT22;4394;51.208;8.904;2023-05-15T09:52:07;18.90;99.70
8715;DHT22;4394;51.208;8.904;2023-05-15T09:54:55;18.80;99.70
8715;DHT22;4394;51.208;8.904;2023-05-15T09:58:03;18.70;99.90
8715;DHT22;4394;51.208;8.904;2023-05-15T10:00:52;18.90;99.10
8715;DHT22;4394;51.208;8.904;2023-05-15T10:03:40;18.70;99.00
8715;DHT22;4394;51.208;8.904;2023-05-15T10:06:34;18.60;99.90
8715;DHT22;4394;51.208;8.904;2023-05-15T10:09:28;18.60;99.70
8715;DHT22;4394;51.208;8.904;2023-05-15T10:12:17;18.60;99.20
8715;DHT22;4394;51.208;8.904;2023-05-15T10:15:08;18.70;99.90
8715;DHT22;4394;51.208;8.904;2023-05-15T10:17:58;18.90;99.90
8715;DHT22;4394;51.208;8.904;2023-05-15T10:20:47;19.10;99.80
8715;DHT22;4394;51.208;8.904;2023-05-15T10:23:37;19.30;99.90
8715;DHT22;4394;51.208;8.904;2023-05-15T10:26:34;19.30;99.90
8715;DHT22;4394;51.208;8.904;2023-05-15T10:29:24;19.30;99.00
8715;DHT22;4394;51.208;8.904;2023-05-15T10:32:15;19.20;99.90
8715;DHT22;4394;51.208;8.904;2023-05-15T10:35:04;19.00;99.90
8715;DHT22;4394;51.208;8.904;2023-05-15T10:37:53;18.90;99.90
8715;DHT22;4394;51.208;8.904;2023-05-15T10:40:42;18.80;99.90
8715;DHT22;4394;51.208;8.904;2023-05-15T10:43:31;18.90;99.90
8715;DHT22;4394;51.208;8.904;2023-05-15T10:46:20;18.80;99.90
8715;DHT22;4394;51.208;8.904;2023-05-15T10:49:10;18.80;99.90
8715;DHT22;4394;51.208;8.904;2023-05-15T10:51:59;18.90;99.90
8715;DHT22;4394;51.208;8.904;2023-05-15T10:54:48;19.10;99.90
8715;DHT22;4394;51.208;8.904;2023-05-15T10:57:36;19.60;99.50
8715;DHT22;4394;51.208;8.904;2023-05-15T11:00:26;19.60;99.90
8715;DHT22;4394;51.208;8.904;2023-05-15T11:03:35;19.70;99.40
8715;DHT22;4394;51.208;8.904;2023-05-15T11:06:41;19.50;98.40
8715;DHT22;4394;51.208;8.904;2023-05-15T11:09:35;19.40;99.60
8715;DHT22;4394;51.208;8.904;2023-05-15T11:12:24;19.40;99.40
8715;DHT22;4394;51.208;8.904;2023-05-15T11:15:19;19.30;99.90
8715;DHT22;4394;51.208;8.904;2023-05-15T11:18:08;19.40;99.90
8715;DHT22;4394;51.208;8.904;2023-05-15T11:21:06;19.50;99.70
8715;DHT22;4394;51.208;8.904;2023-05-15T11:24:04;19.50;98.70
8715;DHT22;4394;51.208;8.904;2023-05-15T11:26:59;19.60;99.90
8715;DHT22;4394;51.208;8.904;2023-05-15T11:30:20;19.80;99.30
8715;DHT22;4394;51.208;8.904;2023-05-15T11:33:12;19.80;97.90
8715;DHT22;4394;51.208;8.904;2023-05-15T11:36:04;19.80;99.20
8715;DHT22;4394;51.208;8.904;2023-05-15T11:38:53;19.90;97.70
8715;DHT22;4394;51.208;8.904;2023-05-15T11:41:43;19.90;98.10
8715;DHT22;4394;51.208;8.904;2023-05-15T11:44:32;19.90;97.70
8715;DHT22;4394;51.208;8.904;2023-05-15T11:47:22;20.00;97.80
8715;DHT22;4394;51.208;8.904;2023-05-15T11:50:11;19.90;95.40
8715;DHT22;4394;51.208;8.904;2023-05-15T11:53:04;19.70;96.40
8715;DHT22;4394;51.208;8.904;2023-05-15T11:55:53;19.50;96.70
8715;DHT22;4394;51.208;8.904;2023-05-15T11:58:43;19.40;97.40
8715;DHT22;4394;51.208;8.904;2023-05-15T12:01:39;19.50;98.50
8715;DHT22;4394;51.208;8.904;2023-05-15T12:04:28;19.80;98.30
8715;DHT22;4394;51.208;8.904;2023-05-15T12:07:17;20.00;98.20
8715;DHT22;4394;51.208;8.904;2023-05-15T12:10:07;20.00;97.00
8715;DHT22;4394;51.208;8.904;2023-05-15T12:12:57;20.00;95.80
8715;DHT22;4394;51.208;8.904;2023-05-15T12:15:48;20.00;97.80
8715;DHT22;4394;51.208;8.904;2023-05-15T12:18:37;20.10;97.80
8715;DHT22;4394;51.208;8.904;2023-05-15T12:21:26;20.10;97.20
8715;DHT22;4394;51.208;8.904;2023-05-15T12:24:19;20.30;98.50
8715;DHT22;4394;51.208;8.904;2023-05-15T12:27:09;20.40;96.20
8715;DHT22;4394;51.208;8.904;2023-05-15T12:29:59;20.40;96.50
8715;DHT22;4394;51.208;8.904;2023-05-15T12:32:49;20.80;96.80
8715;DHT22;4394;51.208;8.904;2023-05-15T12:35:41;20.70;96.50
8715;DHT22;4394;51.208;8.904;2023-05-15T12:38:31;20.70;96.40
8715;DHT22;4394;51.208;8.904;2023-05-15T12:41:25;20.80;97.30
8715;DHT22;4394;51.208;8.904;2023-05-15T12:44:17;21.30;96.60
8715;DHT22;4394;51.208;8.904;2023-05-15T12:47:05;21.10;95.40
8715;DHT22;4394;51.208;8.904;2023-05-15T12:49:56;20.70;95.90
8715;DHT22;4394;51.208;8.904;2023-05-15T12:52:46;20.50;95.50
8715;DHT22;4394;51.208;8.904;2023-05-15T12:55:35;20.20;97.70
8715;DHT22;4394;51.208;8.904;2023-05-15T12:58:24;20.30;99.10
8715;DHT22;4394;51.208;8.904;2023-05-15T13:01:14;20.40;99.20
8715;DHT22;4394;51.208;8.904;2023-05-15T13:04:04;20.50;99.90
8715;DHT22;4394;51.208;8.904;2023-05-15T13:06:55;20.40;99.20
8715;DHT22;4394;51.208;8.904;2023-05-15T13:09:44;20.30;99.20
8715;DHT22;4394;51.208;8.904;2023-05-15T13:12:37;20.30;99.60
8715;DHT22;4394;51.208;8.904;2023-05-15T13:15:29;20.40;99.90
8715;DHT22;4394;51.208;8.904;2023-05-15T13:18:19;20.30;98.30
8715;DHT22;4394;51.208;8.904;2023-05-15T13:21:09;20.40;99.00
8715;DHT22;4394;51.208;8.904;2023-05-15T13:24:01;20.40;98.10
8715;DHT22;4394;51.208;8.904;2023-05-15T13:26:52;20.30;96.90
8715;DHT22;4394;51.208;8.904;2023-05-15T13:29:42;20.30;98.90
8715;DHT22;4394;51.208;8.904;2023-05-15T13:32:30;20.40;98.40
8715;DHT22;4394;51.208;8.904;2023-05-15T13:35:19;21.00;98.10
8715;DHT22;4394;51.208;8.904;2023-05-15T13:38:07;20.70;96.70
8715;DHT22;4394;51.208;8.904;2023-05-15T13:40:59;20.30;96.50
8715;DHT22;4394;51.208;8.904;2023-05-15T13:43:47;20.00;96.80
8715;DHT22;4394;51.208;8.904;2023-05-15T13:46:37;19.90;97.50
8715;DHT22;4394;51.208;8.904;2023-05-15T13:49:26;20.00;98.70
8715;DHT22;4394;51.208;8.904;2023-05-15T13:52:14;20.10;99.10
8715;DHT22;4394;51.208;8.904;2023-05-15T13:55:03;20.20;99.30
8715;DHT22;4394;51.208;8.904;2023-05-15T13:57:53;20.40;99.90
8715;DHT22;4394;51.208;8.904;2023-05-15T14:00:43;20.40;98.20
8715;DHT22;4394;51.208;8.904;2023-05-15T14:03:31;20.40;99.60
8715;DHT22;4394;51.208;8.904;2023-05-15T14:06:20;20.40;97.80
8715;DHT22;4394;51.208;8.904;2023-05-15T14:09:08;20.40;99.50
8715;DHT22;4394;51.208;8.904;2023-05-15T14:11:57;20.50;98.80
8715;DHT22;4394;51.208;8.904;2023-05-15T14:14:47;20.50;98.90
8715;DHT22;4394;51.208;8.904;2023-05-15T14:17:36;20.40;96.80
8715;DHT22;4394;51.208;8.904;2023-05-15T14:20:24;20.40;97.80
8715;DHT22;4394;51.208;8.904;2023-05-15T14:23:13;20.40;97.90
8715;DHT22;4394;51.208;8.904;2023-05-15T14:26:01;20.40;97.50
8715;DHT22;4394;51.208;8.904;2023-05-15T14:28:49;20.50;97.70
8715;DHT22;4394;51.208;8.904;2023-05-15T14:31:40;20.60;98.00
8715;DHT22;4394;51.208;8.904;2023-05-15T14:34:29;20.90;97.00
8715;DHT22;4394;51.208;8.904;2023-05-15T14:37:17;20.90;95.00
8715;DHT22;4394;51.208;8.904;2023-05-15T14:40:06;20.90;95.60
8715;DHT22;4394;51.208;8.904;2023-05-15T14:42:56;20.90;97.70
8715;DHT22;4394;51.208;8.904;2023-05-15T14:45:44;20.90;99.40
8715;DHT22;4394;51.208;8.904;2023-05-15T14:48:34;21.10;99.90
8715;DHT22;4394;51.208;8.904;2023-05-15T14:51:23;21.30;99.90
8715;DHT22;4394;51.208;8.904;2023-05-15T14:54:11;21.30;99.90
8715;DHT22;4394;51.208;8.904;2023-05-15T14:57:00;21.10;99.90
8715;DHT22;4394;51.208;8.904;2023-05-15T14:59:48;21.10;99.90
8715;DHT22;4394;51.208;8.904;2023-05-15T15:02:37;21.10;99.90
8715;DHT22;4394;51.208;8.904;2023-05-15T15:05:27;21.00;99.90
8715;DHT22;4394;51.208;8.904;2023-05-15T15:08:15;20.90;99.90
8715;DHT22;4394;51.208;8.904;2023-05-15T15:11:05;21.00;99.90
8715;DHT22;4394;51.208;8.904;2023-05-15T15:13:54;21.60;99.90
8715;DHT22;4394;51.208;8.904;2023-05-15T15:16:42;21.60;99.90
8715;DHT22;4394;51.208;8.904;2023-05-15T15:19:32;21.70;99.90
8715;DHT22;4394;51.208;8.904;2023-05-15T15:22:22;21.70;99.90
8715;DHT22;4394;51.208;8.904;2023-05-15T15:25:10;21.50;99.90
8715;DHT22;4394;51.208;8.904;2023-05-15T15:27:58;21.40;99.90
8715;DHT22;4394;51.208;8.904;2023-05-15T15:30:47;21.40;99.90
8715;DHT22;4394;51.208;8.904;2023-05-15T15:33:35;21.30;99.90
8715;DHT22;4394;51.208;8.904;2023-05-15T15:36:24;21.40;99.90
8715;DHT22;4394;51.208;8.904;2023-05-15T15:39:14;21.50;99.90
8715;DHT22;4394;51.208;8.904;2023-05-15T15:42:03;21.60;99.90
8715;DHT22;4394;51.208;8.904;2023-05-15T15:44:51;21.60;99.90
8715;DHT22;4394;51.208;8.904;2023-05-15T15:47:39;21.60;99.70
8715;DHT22;4394;51.208;8.904;2023-05-15T15:50:28;21.60;99.90
8715;DHT22;4394;51.208;8.904;2023-05-15T15:53:16;21.50;99.60
8715;DHT22;4394;51.208;8.904;2023-05-15T15:56:06;21.40;99.90
8715;DHT22;4394;51.208;8.904;2023-05-15T15:58:55;21.20;99.70
8715;DHT22;4394;51.208;8.904;2023-05-15T16:01:43;21.20;99.90
8715;DHT22;4394;51.208;8.904;2023-05-15T16:04:32;21.10;99.90
8715;DHT22;4394;51.208;8.904;2023-05-15T16:07:21;21.00;99.90
8715;DHT22;4394;51.208;8.904;2023-05-15T16:10:09;20.70;99.90
8715;DHT22;4394;51.208;8.904;2023-05-15T16:13:00;20.60;99.90
8715;DHT22;4394;51.208;8.904;2023-05-15T16:15:49;20.40;99.90
8715;DHT22;4394;51.208;8.904;2023-05-15T16:18:37;20.20;99.90
8715;DHT22;4394;51.208;8.904;2023-05-15T16:21:26;20.10;99.90
8715;DHT22;4394;51.208;8.904;2023-05-15T16:24:14;20.00;99.90
8715;DHT22;4394;51.208;8.904;2023-05-15T16:27:03;20.00;99.90
8715;DHT22;4394;51.208;8.904;2023-05-15T16:29:53;19.80;99.90
8715;DHT22;4394;51.208;8.904;2023-05-15T16:32:41;19.70;99.90
8715;DHT22;4394;51.208;8.904;2023-05-15T16:35:30;19.60;99.90
8715;DHT22;4394;51.208;8.904;2023-05-15T16:38:19;20.00;99.90
8715;DHT22;4394;51.208;8.904;2023-05-15T16:41:09;19.80;99.90
8715;DHT22;4394;51.208;8.904;2023-05-15T16:43:57;19.50;99.90
8715;DHT22;4394;51.208;8.904;2023-05-15T16:46:47;19.20;99.90
8715;DHT22;4394;51.208;8.904;2023-05-15T16:49:35;18.80;99.90
8715;DHT22;4394;51.208;8.904;2023-05-15T16:52:24;18.60;99.90
8715;DHT22;4394;51.208;8.904;2023-05-15T16:55:14;18.40;99.90
8715;DHT22;4394;51.208;8.904;2023-05-15T16:58:02;18.20;99.90
8715;DHT22;4394;51.208;8.904;2023-05-15T17:00:50;18.10;99.90
8715;DHT22;4394;51.208;8.904;2023-05-15T17:03:40;17.90;99.90
8715;DHT22;4394;51.208;8.904;2023-05-15T17:06:29;17.80;99.90
8715;DHT22;4394;51.208;8.904;2023-05-15T17:09:17;17.80;99.90
8715;DHT22;4394;51.208;8.904;2023-05-15T17:12:07;17.80;99.90
8715;DHT22;4394;51.208;8.904;2023-05-15T17:14:55;18.00;99.90
8715;DHT22;4394;51.208;8.904;2023-05-15T17:17:44;17.80;99.90
8715;DHT22;4394;51.208;8.904;2023-05-15T17:20:35;17.80;99.90
8715;DHT22;4394;51.208;8.904;2023-05-15T17:23:25;18.00;99.90
8715;DHT22;4394;51.208;8.904;2023-05-15T17:26:14;18.10;99.90
8715;DHT22;4394;51.208;8.904;2023-05-15T17:29:02;18.20;99.90
8715;DHT22;4394;51.208;8.904;2023-05-15T17:31:51;18.30;99.90
8715;DHT22;4394;51.208;8.904;2023-05-15T17:34:40;18.30;99.90
8715;DHT22;4394;51.208;8.904;2023-05-15T17:37:29;18.40;99.90
8715;DHT22;4394;51.208;8.904;2023-05-15T17:40:17;19.00;99.90
8715;DHT22;4394;51.208;8.904;2023-05-15T17:43:06;18.90;99.90
8715;DHT22;4394;51.208;8.904;2023-05-15T17:45:55;19.00;99.90
8715;DHT22;4394;51.208;8.904;2023-05-15T17:48:45;19.00;99.90
8715;DHT22;4394;51.208;8.904;2023-05-15T17:51:34;19.10;99.90
8715;DHT22;4394;51.208;8.904;2023-05-15T17:54:23;19.10;99.90
8715;DHT22;4394;51.208;8.904;2023-05-15T17:57:12;19.10;99.90
8715;DHT22;4394;51.208;8.904;2023-05-15T18:00:00;19.10;99.90
8715;DHT22;4394;51.208;8.904;2023-05-15T18:02:50;19.00;99.90
8715;DHT22;4394;51.208;8.904;2023-05-15T18:05:39;19.10;99.90
8715;DHT22;4394;51.208;8.904;2023-05-15T18:08:28;19.00;99.90
8715;DHT22;4394;51.208;8.904;2023-05-15T18:11:18;19.20;99.90
8715;DHT22;4394;51.208;8.904;2023-05-15T18:14:08;19.40;99.90
8715;DHT22;4394;51.208;8.904;2023-05-15T18:16:56;20.00;99.90
8715;DHT22;4394;51.208;8.904;2023-05-15T18:19:45;20.30;99.90
8715;DHT22;4394;51.208;8.904;2023-05-15T18:22:33;20.20;99.90
8715;DHT22;4394;51.208;8.904;2023-05-15T18:25:21;20.00;99.90
8715;DHT22;4394;51.208;8.904;2023-05-15T18:28:11;20.00;99.90
8715;DHT22;4394;51.208;8.904;2023-05-15T18:31:00;20.00;99.90
8715;DHT22;4394;51.208;8.904;2023-05-15T18:33:48;20.10;99.90